sensor_id;sensor_type;location;lat;lon;timestamp;P1;durP1;ratioP1;P2;durP2;ratioP2
4732;SDS011;2380;53.668;10.008;2022-12-10T00:01:48;65.80;;;25.35;;
4732;SDS011;2380;53.668;10.008;2022-12-10T00:04:21;75.60;;;26.70;;
4732;SDS011;2380;53.668;10.008;2022-12-10T00:06:50;77.43;;;25.75;;
4732;SDS011;2380;53.668;10.008;2022-12-10T00:09:20;71.80;;;25.75;;
4732;SDS011;2380;53.668;10.008;2022-12-10T00:11:49;73.50;;;25.52;;
4732;SDS011;2380;53.668;10.008;2022-12-10T00:14:19;68.30;;;24.65;;
4732;SDS011;2380;53.668;10.008;2022-12-10T00:16:48;76.68;;;26.48;;
4732;SDS011;2380;53.668;10.008;2022-12-10T00:19:20;67.93;;;23.88;;
4732;SDS011;2380;53.668;10.008;2022-12-10T00:21:50;64.78;;;24.90;;
4732;SDS011;2380;53.668;10.008;2022-12-10T00:24:20;66.82;;;23.70;;
4732;SDS011;2380;53.668;10.008;2022-12-10T00:26:49;67.10;;;24.20;;
4732;SDS011;2380;53.668;10.008;2022-12-10T00:29:18;64.10;;;23.90;;
4732;SDS011;2380;53.668;10.008;2022-12-10T00:31:48;68.13;;;23.67;;
4732;SDS011;2380;53.668;10.008;2022-12-10T00:34:21;67.45;;;26.05;;
4732;SDS011;2380;53.668;10.008;2022-12-10T00:36:50;71.40;;;24.98;;
4732;SDS011;2380;53.668;10.008;2022-12-10T00:39:20;74.35;;;25.35;;
4732;SDS011;2380;53.668;10.008;2022-12-10T00:41:50;76.28;;;25.10;;
4732;SDS011;2380;53.668;10.008;2022-12-10T00:44:19;75.18;;;24.00;;
4732;SDS011;2380;53.668;10.008;2022-12-10T00:46:49;68.32;;;23.30;;
4732;SDS011;2380;53.668;10.008;2022-12-10T00:49:21;71.53;;;24.95;;
4732;SDS011;2380;53.668;10.008;2022-12-10T00:51:51;79.40;;;25.30;;
4732;SDS011;2380;53.668;10.008;2022-12-10T00:54:21;78.18;;;25.30;;
4732;SDS011;2380;53.668;10.008;2022-12-10T00:56:50;68.88;;;24.55;;
4732;SDS011;2380;53.668;10.008;2022-12-10T00:59:20;70.82;;;23.20;;
4732;SDS011;2380;53.668;10.008;2022-12-10T01:01:49;67.68;;;24.45;;
4732;SDS011;2380;53.668;10.008;2022-12-10T01:04:21;61.20;;;20.42;;
4732;SDS011;2380;53.668;10.008;2022-12-10T01:06:51;61.17;;;20.98;;
4732;SDS011;2380;53.668;10.008;2022-12-10T01:09:22;57.17;;;21.40;;
4732;SDS011;2380;53.668;10.008;2022-12-10T01:11:53;55.35;;;18.73;;
4732;SDS011;2380;53.668;10.008;2022-12-10T01:14:26;60.35;;;23.35;;
4732;SDS011;2380;53.668;10.008;2022-12-10T01:16:57;52.58;;;20.75;;
4732;SDS011;2380;53.668;10.008;2022-12-10T01:19:32;56.65;;;20.58;;
4732;SDS011;2380;53.668;10.008;2022-12-10T01:22:02;55.55;;;20.88;;
4732;SDS011;2380;53.668;10.008;2022-12-10T01:24:32;53.72;;;19.30;;
4732;SDS011;2380;53.668;10.008;2022-12-10T01:27:01;56.15;;;19.20;;
4732;SDS011;2380;53.668;10.008;2022-12-10T01:29:31;56.20;;;18.05;;
4732;SDS011;2380;53.668;10.008;2022-12-10T01:32:00;44.78;;;18.45;;
4732;SDS011;2380;53.668;10.008;2022-12-10T01:34:32;45.58;;;16.67;;
4732;SDS011;2380;53.668;10.008;2022-12-10T01:37:02;45.60;;;16.92;;
4732;SDS011;2380;53.668;10.008;2022-12-10T01:39:31;44.85;;;16.80;;
4732;SDS011;2380;53.668;10.008;2022-12-10T01:42:01;43.42;;;17.92;;
4732;SDS011;2380;53.668;10.008;2022-12-10T01:47:33;44.75;;;18.13;;
4732;SDS011;2380;53.668;10.008;2022-12-10T01:50:07;31.73;;;12.50;;
4732;SDS011;2380;53.668;10.008;2022-12-10T01:52:37;30.25;;;12.88;;
4732;SDS011;2380;53.668;10.008;2022-12-10T01:55:08;37.75;;;13.40;;
4732;SDS011;2380;53.668;10.008;2022-12-10T01:57:53;26.77;;;12.18;;
4732;SDS011;2380;53.668;10.008;2022-12-10T02:00:22;24.95;;;10.82;;
4732;SDS011;2380;53.668;10.008;2022-12-10T02:02:54;30.25;;;11.30;;
4732;SDS011;2380;53.668;10.008;2022-12-10T02:05:34;29.70;;;12.02;;
4732;SDS011;2380;53.668;10.008;2022-12-10T02:08:06;33.83;;;13.55;;
4732;SDS011;2380;53.668;10.008;2022-12-10T02:10:47;24.15;;;10.63;;
4732;SDS011;2380;53.668;10.008;2022-12-10T02:13:23;25.23;;;11.57;;
4732;SDS011;2380;53.668;10.008;2022-12-10T02:15:59;26.60;;;11.48;;
4732;SDS011;2380;53.668;10.008;2022-12-10T02:18:31;24.30;;;11.55;;
4732;SDS011;2380;53.668;10.008;2022-12-10T02:21:08;26.60;;;12.27;;
4732;SDS011;2380;53.668;10.008;2022-12-10T02:23:42;23.08;;;9.27;;
4732;SDS011;2380;53.668;10.008;2022-12-10T02:26:14;24.42;;;9.90;;
4732;SDS011;2380;53.668;10.008;2022-12-10T02:28:51;24.65;;;10.88;;
4732;SDS011;2380;53.668;10.008;2022-12-10T02:31:26;27.65;;;10.80;;
4732;SDS011;2380;53.668;10.008;2022-12-10T02:33:58;24.67;;;11.45;;
4732;SDS011;2380;53.668;10.008;2022-12-10T02:36:31;28.90;;;11.35;;
4732;SDS011;2380;53.668;10.008;2022-12-10T02:39:02;38.28;;;16.38;;
4732;SDS011;2380;53.668;10.008;2022-12-10T02:41:33;69.28;;;29.17;;
4732;SDS011;2380;53.668;10.008;2022-12-10T02:44:05;71.57;;;30.23;;
4732;SDS011;2380;53.668;10.008;2022-12-10T02:46:39;60.47;;;26.53;;
4732;SDS011;2380;53.668;10.008;2022-12-10T02:49:09;33.93;;;15.10;;
4732;SDS011;2380;53.668;10.008;2022-12-10T02:51:41;25.00;;;11.00;;
4732;SDS011;2380;53.668;10.008;2022-12-10T02:57:18;17.33;;;8.32;;
4732;SDS011;2380;53.668;10.008;2022-12-10T02:59:58;20.98;;;9.45;;
4732;SDS011;2380;53.668;10.008;2022-12-10T03:02:38;27.48;;;10.65;;
4732;SDS011;2380;53.668;10.008;2022-12-10T03:05:13;24.42;;;11.32;;
4732;SDS011;2380;53.668;10.008;2022-12-10T03:07:47;25.10;;;10.27;;
4732;SDS011;2380;53.668;10.008;2022-12-10T03:10:20;20.70;;;9.38;;
4732;SDS011;2380;53.668;10.008;2022-12-10T03:12:57;22.23;;;10.07;;
4732;SDS011;2380;53.668;10.008;2022-12-10T03:15:28;19.30;;;9.50;;
4732;SDS011;2380;53.668;10.008;2022-12-10T03:18:03;21.88;;;9.98;;
4732;SDS011;2380;53.668;10.008;2022-12-10T03:20:34;30.60;;;13.23;;
4732;SDS011;2380;53.668;10.008;2022-12-10T03:23:08;27.10;;;11.93;;
4732;SDS011;2380;53.668;10.008;2022-12-10T03:25:39;24.80;;;10.85;;
4732;SDS011;2380;53.668;10.008;2022-12-10T03:28:09;25.80;;;11.85;;
4732;SDS011;2380;53.668;10.008;2022-12-10T03:30:38;22.77;;;9.98;;
4732;SDS011;2380;53.668;10.008;2022-12-10T03:33:12;22.40;;;11.52;;
4732;SDS011;2380;53.668;10.008;2022-12-10T03:35:41;24.27;;;10.80;;
4732;SDS011;2380;53.668;10.008;2022-12-10T03:38:11;27.50;;;11.77;;
4732;SDS011;2380;53.668;10.008;2022-12-10T03:40:41;26.35;;;12.30;;
4732;SDS011;2380;53.668;10.008;2022-12-10T03:43:11;25.27;;;10.98;;
4732;SDS011;2380;53.668;10.008;2022-12-10T03:45:41;27.55;;;12.25;;
4732;SDS011;2380;53.668;10.008;2022-12-10T03:48:13;24.42;;;11.45;;
4732;SDS011;2380;53.668;10.008;2022-12-10T03:50:42;29.83;;;12.98;;
4732;SDS011;2380;53.668;10.008;2022-12-10T03:53:12;27.83;;;11.48;;
4732;SDS011;2380;53.668;10.008;2022-12-10T03:55:41;29.52;;;14.25;;
4732;SDS011;2380;53.668;10.008;2022-12-10T03:58:11;27.02;;;12.38;;
4732;SDS011;2380;53.668;10.008;2022-12-10T04:00:45;30.73;;;13.13;;
4732;SDS011;2380;53.668;10.008;2022-12-10T04:03:17;26.30;;;12.68;;
4732;SDS011;2380;53.668;10.008;2022-12-10T04:05:47;30.85;;;13.45;;
4732;SDS011;2380;53.668;10.008;2022-12-10T04:08:16;30.30;;;13.20;;
4732;SDS011;2380;53.668;10.008;2022-12-10T04:10:46;30.38;;;13.20;;
4732;SDS011;2380;53.668;10.008;2022-12-10T04:13:15;31.73;;;13.75;;
4732;SDS011;2380;53.668;10.008;2022-12-10T04:16:07;29.85;;;12.88;;
4732;SDS011;2380;53.668;10.008;2022-12-10T04:18:51;28.70;;;13.43;;
4732;SDS011;2380;53.668;10.008;2022-12-10T04:21:26;31.20;;;15.70;;
4732;SDS011;2380;53.668;10.008;2022-12-10T04:24:10;27.35;;;12.40;;
4732;SDS011;2380;53.668;10.008;2022-12-10T04:26:52;27.27;;;13.82;;
4732;SDS011;2380;53.668;10.008;2022-12-10T04:29:26;22.88;;;11.18;;
4732;SDS011;2380;53.668;10.008;2022-12-10T04:31:57;24.52;;;11.05;;
4732;SDS011;2380;53.668;10.008;2022-12-10T04:34:29;22.15;;;10.65;;
4732;SDS011;2380;53.668;10.008;2022-12-10T04:36:59;24.35;;;11.23;;
4732;SDS011;2380;53.668;10.008;2022-12-10T04:39:29;26.27;;;12.00;;
4732;SDS011;2380;53.668;10.008;2022-12-10T04:41:59;26.63;;;12.15;;
4732;SDS011;2380;53.668;10.008;2022-12-10T04:44:30;24.17;;;10.90;;
4732;SDS011;2380;53.668;10.008;2022-12-10T04:47:00;26.67;;;11.95;;
4732;SDS011;2380;53.668;10.008;2022-12-10T04:49:32;24.73;;;11.55;;
4732;SDS011;2380;53.668;10.008;2022-12-10T04:52:02;28.88;;;12.60;;
4732;SDS011;2380;53.668;10.008;2022-12-10T04:54:32;24.35;;;12.13;;
4732;SDS011;2380;53.668;10.008;2022-12-10T04:57:04;25.23;;;11.32;;
4732;SDS011;2380;53.668;10.008;2022-12-10T04:59:34;24.92;;;11.90;;
4732;SDS011;2380;53.668;10.008;2022-12-10T05:02:04;22.50;;;10.68;;
4732;SDS011;2380;53.668;10.008;2022-12-10T05:04:37;23.92;;;10.82;;
4732;SDS011;2380;53.668;10.008;2022-12-10T05:07:07;21.88;;;10.60;;
4732;SDS011;2380;53.668;10.008;2022-12-10T05:09:37;26.20;;;11.85;;
4732;SDS011;2380;53.668;10.008;2022-12-10T05:12:07;23.50;;;11.40;;
4732;SDS011;2380;53.668;10.008;2022-12-10T05:14:36;27.73;;;12.27;;
4732;SDS011;2380;53.668;10.008;2022-12-10T05:17:05;25.30;;;11.40;;
4732;SDS011;2380;53.668;10.008;2022-12-10T05:19:37;25.88;;;12.07;;
4732;SDS011;2380;53.668;10.008;2022-12-10T05:22:07;34.90;;;16.05;;
4732;SDS011;2380;53.668;10.008;2022-12-10T05:24:50;64.03;;;28.10;;
4732;SDS011;2380;53.668;10.008;2022-12-10T05:27:19;37.13;;;16.97;;
4732;SDS011;2380;53.668;10.008;2022-12-10T05:29:49;52.57;;;21.80;;
4732;SDS011;2380;53.668;10.008;2022-12-10T05:32:18;31.40;;;15.03;;
4732;SDS011;2380;53.668;10.008;2022-12-10T05:34:50;39.07;;;18.23;;
4732;SDS011;2380;53.668;10.008;2022-12-10T05:37:19;29.50;;;14.03;;
4732;SDS011;2380;53.668;10.008;2022-12-10T05:39:49;22.70;;;11.45;;
4732;SDS011;2380;53.668;10.008;2022-12-10T05:42:18;21.30;;;10.67;;
4732;SDS011;2380;53.668;10.008;2022-12-10T05:44:48;28.23;;;13.93;;
4732;SDS011;2380;53.668;10.008;2022-12-10T05:47:17;27.55;;;12.95;;
4732;SDS011;2380;53.668;10.008;2022-12-10T05:49:46;27.10;;;13.13;;
4732;SDS011;2380;53.668;10.008;2022-12-10T05:52:18;29.05;;;13.38;;
4732;SDS011;2380;53.668;10.008;2022-12-10T05:54:48;22.98;;;12.52;;
4732;SDS011;2380;53.668;10.008;2022-12-10T05:57:17;25.17;;;11.65;;
4732;SDS011;2380;53.668;10.008;2022-12-10T05:59:47;35.17;;;16.20;;
4732;SDS011;2380;53.668;10.008;2022-12-10T06:02:16;26.75;;;12.73;;
4732;SDS011;2380;53.668;10.008;2022-12-10T06:04:45;28.85;;;14.55;;
4732;SDS011;2380;53.668;10.008;2022-12-10T06:07:17;25.95;;;12.57;;
4732;SDS011;2380;53.668;10.008;2022-12-10T06:09:47;24.05;;;11.05;;
4732;SDS011;2380;53.668;10.008;2022-12-10T06:12:16;25.85;;;12.10;;
4732;SDS011;2380;53.668;10.008;2022-12-10T06:14:46;30.85;;;12.70;;
4732;SDS011;2380;53.668;10.008;2022-12-10T06:17:16;29.42;;;13.07;;
4732;SDS011;2380;53.668;10.008;2022-12-10T06:19:45;25.80;;;11.48;;
4732;SDS011;2380;53.668;10.008;2022-12-10T06:22:17;22.45;;;11.50;;
4732;SDS011;2380;53.668;10.008;2022-12-10T06:24:47;22.52;;;11.50;;
4732;SDS011;2380;53.668;10.008;2022-12-10T06:27:16;25.98;;;13.13;;
4732;SDS011;2380;53.668;10.008;2022-12-10T06:29:45;24.58;;;12.27;;
4732;SDS011;2380;53.668;10.008;2022-12-10T06:32:15;20.35;;;10.18;;
4732;SDS011;2380;53.668;10.008;2022-12-10T06:34:44;23.40;;;10.80;;
4732;SDS011;2380;53.668;10.008;2022-12-10T06:37:14;19.77;;;9.73;;
4732;SDS011;2380;53.668;10.008;2022-12-10T06:39:46;20.48;;;10.57;;
4732;SDS011;2380;53.668;10.008;2022-12-10T06:42:15;18.73;;;9.45;;
4732;SDS011;2380;53.668;10.008;2022-12-10T06:44:45;18.85;;;10.68;;
4732;SDS011;2380;53.668;10.008;2022-12-10T06:47:14;23.55;;;10.90;;
4732;SDS011;2380;53.668;10.008;2022-12-10T06:49:43;21.52;;;11.48;;
4732;SDS011;2380;53.668;10.008;2022-12-10T06:52:13;21.52;;;10.13;;
4732;SDS011;2380;53.668;10.008;2022-12-10T06:54:45;19.88;;;10.45;;
4732;SDS011;2380;53.668;10.008;2022-12-10T06:57:15;19.75;;;10.52;;
4732;SDS011;2380;53.668;10.008;2022-12-10T06:59:44;20.30;;;10.38;;
4732;SDS011;2380;53.668;10.008;2022-12-10T07:02:14;24.63;;;11.55;;
4732;SDS011;2380;53.668;10.008;2022-12-10T07:04:43;19.80;;;10.23;;
4732;SDS011;2380;53.668;10.008;2022-12-10T07:07:13;21.77;;;11.07;;
4732;SDS011;2380;53.668;10.008;2022-12-10T07:09:42;21.80;;;11.20;;
4732;SDS011;2380;53.668;10.008;2022-12-10T07:12:14;19.65;;;10.50;;
4732;SDS011;2380;53.668;10.008;2022-12-10T07:14:44;27.80;;;11.57;;
4732;SDS011;2380;53.668;10.008;2022-12-10T07:17:13;20.95;;;10.73;;
4732;SDS011;2380;53.668;10.008;2022-12-10T07:19:43;21.02;;;11.07;;
4732;SDS011;2380;53.668;10.008;2022-12-10T07:22:12;20.88;;;10.45;;
4732;SDS011;2380;53.668;10.008;2022-12-10T07:24:42;23.58;;;11.88;;
4732;SDS011;2380;53.668;10.008;2022-12-10T07:27:14;25.75;;;11.48;;
4732;SDS011;2380;53.668;10.008;2022-12-10T07:29:43;21.70;;;11.82;;
4732;SDS011;2380;53.668;10.008;2022-12-10T07:32:13;29.25;;;13.65;;
4732;SDS011;2380;53.668;10.008;2022-12-10T07:34:42;21.98;;;11.70;;
4732;SDS011;2380;53.668;10.008;2022-12-10T07:37:12;22.13;;;11.23;;
4732;SDS011;2380;53.668;10.008;2022-12-10T07:39:41;24.40;;;11.65;;
4732;SDS011;2380;53.668;10.008;2022-12-10T07:42:13;22.80;;;11.18;;
4732;SDS011;2380;53.668;10.008;2022-12-10T07:44:43;25.15;;;13.18;;
4732;SDS011;2380;53.668;10.008;2022-12-10T07:47:14;28.52;;;12.63;;
4732;SDS011;2380;53.668;10.008;2022-12-10T07:49:44;27.20;;;13.00;;
4732;SDS011;2380;53.668;10.008;2022-12-10T07:52:14;21.98;;;11.35;;
4732;SDS011;2380;53.668;10.008;2022-12-10T07:54:43;24.63;;;11.23;;
4732;SDS011;2380;53.668;10.008;2022-12-10T07:57:15;19.05;;;10.73;;
4732;SDS011;2380;53.668;10.008;2022-12-10T07:59:45;19.10;;;9.93;;
4732;SDS011;2380;53.668;10.008;2022-12-10T08:02:14;23.10;;;11.23;;
4732;SDS011;2380;53.668;10.008;2022-12-10T08:04:43;21.63;;;11.45;;
4732;SDS011;2380;53.668;10.008;2022-12-10T08:07:13;23.17;;;11.40;;
4732;SDS011;2380;53.668;10.008;2022-12-10T08:09:42;24.38;;;12.23;;
4732;SDS011;2380;53.668;10.008;2022-12-10T08:12:12;19.23;;;10.93;;
4732;SDS011;2380;53.668;10.008;2022-12-10T08:14:44;24.15;;;10.52;;
4732;SDS011;2380;53.668;10.008;2022-12-10T08:17:13;24.27;;;11.77;;
4732;SDS011;2380;53.668;10.008;2022-12-10T08:19:43;19.77;;;10.43;;
4732;SDS011;2380;53.668;10.008;2022-12-10T08:22:12;19.23;;;9.45;;
4732;SDS011;2380;53.668;10.008;2022-12-10T08:24:42;21.25;;;9.63;;
4732;SDS011;2380;53.668;10.008;2022-12-10T08:27:11;20.92;;;10.75;;
4732;SDS011;2380;53.668;10.008;2022-12-10T08:29:43;20.88;;;10.35;;
4732;SDS011;2380;53.668;10.008;2022-12-10T08:32:13;23.35;;;10.02;;
4732;SDS011;2380;53.668;10.008;2022-12-10T08:34:42;22.38;;;10.15;;
4732;SDS011;2380;53.668;10.008;2022-12-10T08:37:12;17.45;;;9.07;;
4732;SDS011;2380;53.668;10.008;2022-12-10T08:39:41;17.33;;;9.48;;
4732;SDS011;2380;53.668;10.008;2022-12-10T08:42:11;22.35;;;10.38;;
4732;SDS011;2380;53.668;10.008;2022-12-10T08:44:40;19.83;;;9.65;;
4732;SDS011;2380;53.668;10.008;2022-12-10T08:47:12;17.83;;;9.45;;
4732;SDS011;2380;53.668;10.008;2022-12-10T08:49:42;23.73;;;10.52;;
4732;SDS011;2380;53.668;10.008;2022-12-10T08:52:11;18.52;;;10.05;;
4732;SDS011;2380;53.668;10.008;2022-12-10T08:54:40;23.70;;;10.20;;
4732;SDS011;2380;53.668;10.008;2022-12-10T08:57:10;26.92;;;12.68;;
4732;SDS011;2380;53.668;10.008;2022-12-10T08:59:39;30.00;;;14.90;;
4732;SDS011;2380;53.668;10.008;2022-12-10T09:02:09;23.00;;;11.15;;
4732;SDS011;2380;53.668;10.008;2022-12-10T09:04:42;20.52;;;11.05;;
4732;SDS011;2380;53.668;10.008;2022-12-10T09:07:12;18.00;;;8.95;;
4732;SDS011;2380;53.668;10.008;2022-12-10T09:09:41;20.58;;;9.52;;
4732;SDS011;2380;53.668;10.008;2022-12-10T09:12:11;21.50;;;9.85;;
4732;SDS011;2380;53.668;10.008;2022-12-10T09:14:40;16.02;;;8.52;;
4732;SDS011;2380;53.668;10.008;2022-12-10T09:17:12;17.83;;;9.70;;
4732;SDS011;2380;53.668;10.008;2022-12-10T09:19:42;17.55;;;8.95;;
4732;SDS011;2380;53.668;10.008;2022-12-10T09:22:11;16.08;;;8.80;;
4732;SDS011;2380;53.668;10.008;2022-12-10T09:24:41;16.58;;;8.63;;
4732;SDS011;2380;53.668;10.008;2022-12-10T09:27:10;25.02;;;12.48;;
4732;SDS011;2380;53.668;10.008;2022-12-10T09:29:40;31.83;;;14.15;;
4732;SDS011;2380;53.668;10.008;2022-12-10T09:32:09;21.13;;;10.13;;
4732;SDS011;2380;53.668;10.008;2022-12-10T09:34:41;20.83;;;10.45;;
4732;SDS011;2380;53.668;10.008;2022-12-10T09:37:10;23.70;;;11.52;;
4732;SDS011;2380;53.668;10.008;2022-12-10T09:39:40;24.33;;;10.85;;
4732;SDS011;2380;53.668;10.008;2022-12-10T09:42:13;32.65;;;15.55;;
4732;SDS011;2380;53.668;10.008;2022-12-10T09:44:51;23.30;;;11.38;;
4732;SDS011;2380;53.668;10.008;2022-12-10T09:47:24;16.33;;;7.97;;
4732;SDS011;2380;53.668;10.008;2022-12-10T09:50:00;18.38;;;8.20;;
4732;SDS011;2380;53.668;10.008;2022-12-10T09:52:39;18.08;;;8.52;;
4732;SDS011;2380;53.668;10.008;2022-12-10T09:55:12;17.48;;;8.63;;
4732;SDS011;2380;53.668;10.008;2022-12-10T09:57:45;18.23;;;8.32;;
4732;SDS011;2380;53.668;10.008;2022-12-10T10:00:18;16.83;;;8.32;;
4732;SDS011;2380;53.668;10.008;2022-12-10T10:02:50;20.95;;;9.35;;
4732;SDS011;2380;53.668;10.008;2022-12-10T10:05:24;18.00;;;8.60;;
4732;SDS011;2380;53.668;10.008;2022-12-10T10:07:55;20.40;;;10.23;;
4732;SDS011;2380;53.668;10.008;2022-12-10T10:10:27;21.25;;;9.88;;
4732;SDS011;2380;53.668;10.008;2022-12-10T10:12:58;20.23;;;10.52;;
4732;SDS011;2380;53.668;10.008;2022-12-10T10:15:30;18.58;;;8.77;;
4732;SDS011;2380;53.668;10.008;2022-12-10T10:18:02;18.83;;;8.82;;
4732;SDS011;2380;53.668;10.008;2022-12-10T10:20:36;17.60;;;8.25;;
4732;SDS011;2380;53.668;10.008;2022-12-10T10:23:07;19.20;;;8.98;;
4732;SDS011;2380;53.668;10.008;2022-12-10T10:25:37;19.05;;;9.60;;
4732;SDS011;2380;53.668;10.008;2022-12-10T10:28:09;18.50;;;9.23;;
4732;SDS011;2380;53.668;10.008;2022-12-10T10:30:41;20.08;;;9.48;;
4732;SDS011;2380;53.668;10.008;2022-12-10T10:33:14;15.77;;;8.70;;
4732;SDS011;2380;53.668;10.008;2022-12-10T10:35:47;17.30;;;8.63;;
4732;SDS011;2380;53.668;10.008;2022-12-10T10:38:18;18.38;;;9.52;;
4732;SDS011;2380;53.668;10.008;2022-12-10T10:40:50;19.15;;;8.88;;
4732;SDS011;2380;53.668;10.008;2022-12-10T10:43:23;17.10;;;9.20;;
4732;SDS011;2380;53.668;10.008;2022-12-10T10:45:53;16.55;;;8.55;;
4732;SDS011;2380;53.668;10.008;2022-12-10T10:48:25;18.15;;;9.70;;
4732;SDS011;2380;53.668;10.008;2022-12-10T10:51:05;17.02;;;8.48;;
4732;SDS011;2380;53.668;10.008;2022-12-10T10:53:42;17.05;;;9.05;;
4732;SDS011;2380;53.668;10.008;2022-12-10T10:56:13;17.60;;;8.40;;
4732;SDS011;2380;53.668;10.008;2022-12-10T10:58:49;21.35;;;9.35;;
4732;SDS011;2380;53.668;10.008;2022-12-10T11:01:22;18.63;;;8.45;;
4732;SDS011;2380;53.668;10.008;2022-12-10T11:03:54;15.50;;;7.80;;
4732;SDS011;2380;53.668;10.008;2022-12-10T11:06:28;16.85;;;8.73;;
4732;SDS011;2380;53.668;10.008;2022-12-10T11:08:57;22.52;;;9.30;;
4732;SDS011;2380;53.668;10.008;2022-12-10T11:11:31;16.33;;;9.48;;
4732;SDS011;2380;53.668;10.008;2022-12-10T11:14:22;18.17;;;9.07;;
4732;SDS011;2380;53.668;10.008;2022-12-10T11:16:57;17.83;;;8.90;;
4732;SDS011;2380;53.668;10.008;2022-12-10T11:19:30;15.60;;;8.70;;
4732;SDS011;2380;53.668;10.008;2022-12-10T11:24:49;16.75;;;8.23;;
4732;SDS011;2380;53.668;10.008;2022-12-10T11:27:23;14.90;;;8.60;;
4732;SDS011;2380;53.668;10.008;2022-12-10T11:30:03;18.88;;;9.05;;
4732;SDS011;2380;53.668;10.008;2022-12-10T11:32:38;14.30;;;7.85;;
4732;SDS011;2380;53.668;10.008;2022-12-10T11:35:16;22.05;;;9.65;;
4732;SDS011;2380;53.668;10.008;2022-12-10T11:37:53;20.52;;;10.55;;
4732;SDS011;2380;53.668;10.008;2022-12-10T11:40:34;32.63;;;14.63;;
4732;SDS011;2380;53.668;10.008;2022-12-10T11:43:16;21.60;;;9.60;;
4732;SDS011;2380;53.668;10.008;2022-12-10T11:46:00;16.75;;;8.77;;
4732;SDS011;2380;53.668;10.008;2022-12-10T11:48:41;17.75;;;8.05;;
4732;SDS011;2380;53.668;10.008;2022-12-10T11:51:18;16.42;;;8.43;;
4732;SDS011;2380;53.668;10.008;2022-12-10T11:53:59;16.40;;;8.18;;
4732;SDS011;2380;53.668;10.008;2022-12-10T11:56:35;16.52;;;7.85;;
4732;SDS011;2380;53.668;10.008;2022-12-10T11:59:16;17.17;;;8.85;;
4732;SDS011;2380;53.668;10.008;2022-12-10T12:02:19;17.48;;;8.70;;
4732;SDS011;2380;53.668;10.008;2022-12-10T12:04:59;17.58;;;9.30;;
4732;SDS011;2380;53.668;10.008;2022-12-10T12:07:43;17.85;;;9.40;;
4732;SDS011;2380;53.668;10.008;2022-12-10T12:10:24;18.73;;;9.55;;
4732;SDS011;2380;53.668;10.008;2022-12-10T12:13:20;16.80;;;8.77;;
4732;SDS011;2380;53.668;10.008;2022-12-10T12:15:54;17.48;;;9.10;;
4732;SDS011;2380;53.668;10.008;2022-12-10T12:18:27;17.08;;;8.82;;
4732;SDS011;2380;53.668;10.008;2022-12-10T12:21:04;19.20;;;9.05;;
4732;SDS011;2380;53.668;10.008;2022-12-10T12:23:40;16.98;;;8.90;;
4732;SDS011;2380;53.668;10.008;2022-12-10T12:26:16;14.93;;;8.27;;
4732;SDS011;2380;53.668;10.008;2022-12-10T12:28:50;19.33;;;9.52;;
4732;SDS011;2380;53.668;10.008;2022-12-10T12:31:24;16.88;;;8.68;;
4732;SDS011;2380;53.668;10.008;2022-12-10T12:34:01;17.85;;;9.25;;
4732;SDS011;2380;53.668;10.008;2022-12-10T12:36:34;24.90;;;11.23;;
4732;SDS011;2380;53.668;10.008;2022-12-10T12:39:05;16.40;;;8.20;;
4732;SDS011;2380;53.668;10.008;2022-12-10T12:41:43;12.88;;;7.82;;
4732;SDS011;2380;53.668;10.008;2022-12-10T12:44:17;16.13;;;8.35;;
4732;SDS011;2380;53.668;10.008;2022-12-10T12:46:48;13.23;;;7.47;;
4732;SDS011;2380;53.668;10.008;2022-12-10T12:49:20;13.63;;;7.68;;
4732;SDS011;2380;53.668;10.008;2022-12-10T12:51:53;16.02;;;8.70;;
4732;SDS011;2380;53.668;10.008;2022-12-10T12:54:25;19.02;;;8.98;;
4732;SDS011;2380;53.668;10.008;2022-12-10T12:56:59;14.45;;;7.85;;
4732;SDS011;2380;53.668;10.008;2022-12-10T12:59:40;15.18;;;8.13;;
4732;SDS011;2380;53.668;10.008;2022-12-10T13:02:21;18.70;;;9.90;;
4732;SDS011;2380;53.668;10.008;2022-12-10T13:05:12;16.38;;;8.50;;
4732;SDS011;2380;53.668;10.008;2022-12-10T13:07:43;15.40;;;7.63;;
4732;SDS011;2380;53.668;10.008;2022-12-10T13:10:22;16.60;;;8.35;;
4732;SDS011;2380;53.668;10.008;2022-12-10T13:13:16;13.90;;;8.18;;
4732;SDS011;2380;53.668;10.008;2022-12-10T13:15:51;14.68;;;8.10;;
4732;SDS011;2380;53.668;10.008;2022-12-10T13:18:23;19.02;;;9.05;;
4732;SDS011;2380;53.668;10.008;2022-12-10T13:24:07;15.50;;;8.20;;
4732;SDS011;2380;53.668;10.008;2022-12-10T13:26:40;12.00;;;6.45;;
4732;SDS011;2380;53.668;10.008;2022-12-10T13:29:43;13.88;;;6.93;;
4732;SDS011;2380;53.668;10.008;2022-12-10T13:32:15;14.05;;;7.30;;
4732;SDS011;2380;53.668;10.008;2022-12-10T13:34:46;15.63;;;8.32;;
4732;SDS011;2380;53.668;10.008;2022-12-10T13:37:26;13.70;;;6.38;;
4732;SDS011;2380;53.668;10.008;2022-12-10T13:40:03;18.98;;;8.80;;
4732;SDS011;2380;53.668;10.008;2022-12-10T13:42:43;15.60;;;8.32;;
4732;SDS011;2380;53.668;10.008;2022-12-10T13:45:30;32.67;;;14.90;;
4732;SDS011;2380;53.668;10.008;2022-12-10T13:48:18;23.27;;;10.88;;
4732;SDS011;2380;53.668;10.008;2022-12-10T13:50:57;20.88;;;10.80;;
4732;SDS011;2380;53.668;10.008;2022-12-10T13:53:39;19.20;;;9.02;;
4732;SDS011;2380;53.668;10.008;2022-12-10T13:56:14;17.17;;;8.75;;
4732;SDS011;2380;53.668;10.008;2022-12-10T13:58:48;29.40;;;14.00;;
4732;SDS011;2380;53.668;10.008;2022-12-10T14:01:26;38.22;;;17.50;;
4732;SDS011;2380;53.668;10.008;2022-12-10T14:04:05;86.78;;;34.92;;
4732;SDS011;2380;53.668;10.008;2022-12-10T14:06:44;77.88;;;34.33;;
4732;SDS011;2380;53.668;10.008;2022-12-10T14:09:16;87.75;;;36.80;;
4732;SDS011;2380;53.668;10.008;2022-12-10T14:11:48;24.15;;;11.82;;
4732;SDS011;2380;53.668;10.008;2022-12-10T14:14:22;41.88;;;20.05;;
4732;SDS011;2380;53.668;10.008;2022-12-10T14:16:55;52.67;;;24.10;;
4732;SDS011;2380;53.668;10.008;2022-12-10T14:19:31;55.10;;;23.85;;
4732;SDS011;2380;53.668;10.008;2022-12-10T14:22:04;34.95;;;16.23;;
4732;SDS011;2380;53.668;10.008;2022-12-10T14:24:35;28.58;;;13.10;;
4732;SDS011;2380;53.668;10.008;2022-12-10T14:27:10;34.38;;;14.32;;
4732;SDS011;2380;53.668;10.008;2022-12-10T14:29:44;23.42;;;11.07;;
4732;SDS011;2380;53.668;10.008;2022-12-10T14:32:18;24.75;;;11.55;;
4732;SDS011;2380;53.668;10.008;2022-12-10T14:34:50;22.05;;;10.80;;
4732;SDS011;2380;53.668;10.008;2022-12-10T14:37:22;23.20;;;11.50;;
4732;SDS011;2380;53.668;10.008;2022-12-10T14:39:53;21.25;;;10.40;;
4732;SDS011;2380;53.668;10.008;2022-12-10T14:42:23;22.83;;;11.00;;
4732;SDS011;2380;53.668;10.008;2022-12-10T14:44:55;20.30;;;10.25;;
4732;SDS011;2380;53.668;10.008;2022-12-10T14:47:29;24.20;;;11.18;;
4732;SDS011;2380;53.668;10.008;2022-12-10T14:50:02;21.38;;;10.07;;
4732;SDS011;2380;53.668;10.008;2022-12-10T14:52:33;21.40;;;11.15;;
4732;SDS011;2380;53.668;10.008;2022-12-10T14:55:11;20.90;;;10.57;;
4732;SDS011;2380;53.668;10.008;2022-12-10T14:57:43;23.80;;;11.10;;
4732;SDS011;2380;53.668;10.008;2022-12-10T15:00:15;22.40;;;10.63;;
4732;SDS011;2380;53.668;10.008;2022-12-10T15:02:51;20.27;;;9.57;;
4732;SDS011;2380;53.668;10.008;2022-12-10T15:05:23;19.65;;;9.90;;
4732;SDS011;2380;53.668;10.008;2022-12-10T15:07:54;23.60;;;11.38;;
4732;SDS011;2380;53.668;10.008;2022-12-10T15:10:24;19.02;;;9.98;;
4732;SDS011;2380;53.668;10.008;2022-12-10T15:12:56;22.98;;;10.40;;
4732;SDS011;2380;53.668;10.008;2022-12-10T15:15:29;20.27;;;9.70;;
4732;SDS011;2380;53.668;10.008;2022-12-10T15:18:03;25.38;;;12.15;;
4732;SDS011;2380;53.668;10.008;2022-12-10T15:20:44;20.38;;;10.27;;
4732;SDS011;2380;53.668;10.008;2022-12-10T15:23:17;22.23;;;9.90;;